sensor_id;sensor_type;location;lat;lon;timestamp;P1;durP1;ratioP1;P2;durP2;ratioP2
21513;SDS011;10918;48.102;11.636;2022-07-21T00:01:48;6.15;;;3.40;;
21513;SDS011;10918;48.102;11.636;2022-07-21T00:04:14;4.82;;;3.50;;
21513;SDS011;10918;48.102;11.636;2022-07-21T00:06:40;4.10;;;3.70;;
21513;SDS011;10918;48.102;11.636;2022-07-21T00:09:07;5.57;;;3.70;;
21513;SDS011;10918;48.102;11.636;2022-07-21T00:11:35;5.28;;;3.63;;
21513;SDS011;10918;48.102;11.636;2022-07-21T00:14:02;5.25;;;3.80;;
21513;SDS011;10918;48.102;11.636;2022-07-21T00:16:28;7.28;;;3.75;;
21513;SDS011;10918;48.102;11.636;2022-07-21T00:18:54;4.93;;;3.47;;
21513;SDS011;10918;48.102;11.636;2022-07-21T00:21:20;4.15;;;3.58;;
21513;SDS011;10918;48.102;11.636;2022-07-21T00:23:46;5.90;;;4.18;;
21513;SDS011;10918;48.102;11.636;2022-07-21T00:26:12;7.05;;;4.20;;
21513;SDS011;10918;48.102;11.636;2022-07-21T00:28:39;5.20;;;3.70;;
21513;SDS011;10918;48.102;11.636;2022-07-21T00:31:05;4.63;;;4.22;;
21513;SDS011;10918;48.102;11.636;2022-07-21T00:33:31;6.05;;;4.10;;
21513;SDS011;10918;48.102;11.636;2022-07-21T00:35:57;6.05;;;4.10;;
21513;SDS011;10918;48.102;11.636;2022-07-21T00:38:23;5.65;;;3.92;;
21513;SDS011;10918;48.102;11.636;2022-07-21T00:40:49;5.97;;;4.30;;
21513;SDS011;10918;48.102;11.636;2022-07-21T00:43:16;5.28;;;4.30;;
21513;SDS011;10918;48.102;11.636;2022-07-21T00:45:42;4.47;;;3.90;;
21513;SDS011;10918;48.102;11.636;2022-07-21T00:48:08;5.05;;;4.10;;
21513;SDS011;10918;48.102;11.636;2022-07-21T00:50:34;6.20;;;4.78;;
21513;SDS011;10918;48.102;11.636;2022-07-21T00:53:00;5.50;;;4.15;;
21513;SDS011;10918;48.102;11.636;2022-07-21T00:55:26;6.88;;;4.20;;
21513;SDS011;10918;48.102;11.636;2022-07-21T00:57:52;5.28;;;4.47;;
21513;SDS011;10918;48.102;11.636;2022-07-21T01:00:20;7.25;;;4.40;;
21513;SDS011;10918;48.102;11.636;2022-07-21T01:02:47;4.65;;;4.18;;
21513;SDS011;10918;48.102;11.636;2022-07-21T01:05:13;6.07;;;4.30;;
21513;SDS011;10918;48.102;11.636;2022-07-21T01:07:40;5.45;;;4.45;;
21513;SDS011;10918;48.102;11.636;2022-07-21T01:10:06;5.20;;;4.40;;
21513;SDS011;10918;48.102;11.636;2022-07-21T01:12:33;4.95;;;4.40;;
21513;SDS011;10918;48.102;11.636;2022-07-21T01:14:59;6.07;;;4.47;;
21513;SDS011;10918;48.102;11.636;2022-07-21T01:17:25;7.07;;;4.60;;
21513;SDS011;10918;48.102;11.636;2022-07-21T01:19:51;4.38;;;3.97;;
21513;SDS011;10918;48.102;11.636;2022-07-21T01:22:18;6.53;;;5.05;;
21513;SDS011;10918;48.102;11.636;2022-07-21T01:24:44;4.85;;;4.35;;
21513;SDS011;10918;48.102;11.636;2022-07-21T01:27:10;6.60;;;5.22;;
21513;SDS011;10918;48.102;11.636;2022-07-21T01:29:36;5.40;;;4.18;;
21513;SDS011;10918;48.102;11.636;2022-07-21T01:32:02;5.60;;;4.47;;
21513;SDS011;10918;48.102;11.636;2022-07-21T01:34:29;4.93;;;4.43;;
21513;SDS011;10918;48.102;11.636;2022-07-21T01:36:55;6.18;;;4.50;;
21513;SDS011;10918;48.102;11.636;2022-07-21T01:39:21;6.65;;;4.35;;
21513;SDS011;10918;48.102;11.636;2022-07-21T01:42:05;7.93;;;4.90;;
21513;SDS011;10918;48.102;11.636;2022-07-21T01:44:31;5.93;;;5.07;;
21513;SDS011;10918;48.102;11.636;2022-07-21T01:46:57;5.38;;;4.78;;
21513;SDS011;10918;48.102;11.636;2022-07-21T01:49:23;6.60;;;4.63;;
21513;SDS011;10918;48.102;11.636;2022-07-21T01:51:50;5.07;;;4.57;;
21513;SDS011;10918;48.102;11.636;2022-07-21T01:54:16;6.78;;;4.65;;
21513;SDS011;10918;48.102;11.636;2022-07-21T01:56:42;6.18;;;4.10;;
21513;SDS011;10918;48.102;11.636;2022-07-21T01:59:08;8.77;;;4.70;;
21513;SDS011;10918;48.102;11.636;2022-07-21T02:01:34;5.40;;;4.40;;
21513;SDS011;10918;48.102;11.636;2022-07-21T02:04:01;5.32;;;4.70;;
21513;SDS011;10918;48.102;11.636;2022-07-21T02:06:28;4.70;;;4.25;;
21513;SDS011;10918;48.102;11.636;2022-07-21T02:08:54;6.68;;;4.88;;
21513;SDS011;10918;48.102;11.636;2022-07-21T02:11:20;6.22;;;4.80;;
21513;SDS011;10918;48.102;11.636;2022-07-21T02:13:47;8.40;;;4.82;;
21513;SDS011;10918;48.102;11.636;2022-07-21T02:16:13;7.15;;;4.70;;
21513;SDS011;10918;48.102;11.636;2022-07-21T02:18:39;5.10;;;4.60;;
21513;SDS011;10918;48.102;11.636;2022-07-21T02:21:05;6.57;;;4.95;;
21513;SDS011;10918;48.102;11.636;2022-07-21T02:23:32;5.30;;;4.55;;
21513;SDS011;10918;48.102;11.636;2022-07-21T02:25:58;5.15;;;4.70;;
21513;SDS011;10918;48.102;11.636;2022-07-21T02:28:24;5.32;;;4.82;;
21513;SDS011;10918;48.102;11.636;2022-07-21T02:30:53;7.10;;;4.95;;
21513;SDS011;10918;48.102;11.636;2022-07-21T02:33:19;7.53;;;5.20;;
21513;SDS011;10918;48.102;11.636;2022-07-21T02:35:46;6.38;;;5.28;;
21513;SDS011;10918;48.102;11.636;2022-07-21T02:38:12;5.75;;;5.25;;
21513;SDS011;10918;48.102;11.636;2022-07-21T02:40:38;5.68;;;5.05;;
21513;SDS011;10918;48.102;11.636;2022-07-21T02:43:04;5.70;;;5.10;;
21513;SDS011;10918;48.102;11.636;2022-07-21T02:45:31;6.50;;;4.93;;
21513;SDS011;10918;48.102;11.636;2022-07-21T02:47:58;6.07;;;5.47;;
21513;SDS011;10918;48.102;11.636;2022-07-21T02:50:25;6.13;;;5.53;;
21513;SDS011;10918;48.102;11.636;2022-07-21T02:52:58;8.48;;;6.00;;
21513;SDS011;10918;48.102;11.636;2022-07-21T02:55:25;6.00;;;5.05;;
21513;SDS011;10918;48.102;11.636;2022-07-21T03:00:38;5.35;;;4.85;;
21513;SDS011;10918;48.102;11.636;2022-07-21T03:03:05;6.95;;;5.38;;
21513;SDS011;10918;48.102;11.636;2022-07-21T03:05:31;6.00;;;5.25;;
21513;SDS011;10918;48.102;11.636;2022-07-21T03:07:57;7.93;;;6.00;;
21513;SDS011;10918;48.102;11.636;2022-07-21T03:10:23;9.82;;;6.15;;
21513;SDS011;10918;48.102;11.636;2022-07-21T03:12:49;5.63;;;4.97;;
21513;SDS011;10918;48.102;11.636;2022-07-21T03:15:15;6.95;;;5.95;;
21513;SDS011;10918;48.102;11.636;2022-07-21T03:17:41;7.88;;;6.05;;
21513;SDS011;10918;48.102;11.636;2022-07-21T03:20:07;6.70;;;6.10;;
21513;SDS011;10918;48.102;11.636;2022-07-21T03:22:34;7.32;;;6.30;;
21513;SDS011;10918;48.102;11.636;2022-07-21T03:25:00;5.57;;;5.07;;
21513;SDS011;10918;48.102;11.636;2022-07-21T03:27:26;6.35;;;5.75;;
21513;SDS011;10918;48.102;11.636;2022-07-21T03:29:52;9.68;;;6.38;;
21513;SDS011;10918;48.102;11.636;2022-07-21T03:32:18;7.38;;;6.40;;
21513;SDS011;10918;48.102;11.636;2022-07-21T03:34:44;6.70;;;6.13;;
21513;SDS011;10918;48.102;11.636;2022-07-21T03:37:10;7.43;;;6.68;;
21513;SDS011;10918;48.102;11.636;2022-07-21T03:39:36;7.47;;;6.28;;
21513;SDS011;10918;48.102;11.636;2022-07-21T03:42:02;7.80;;;6.57;;
21513;SDS011;10918;48.102;11.636;2022-07-21T03:44:28;8.55;;;7.50;;
21513;SDS011;10918;48.102;11.636;2022-07-21T03:46:55;9.27;;;7.78;;
21513;SDS011;10918;48.102;11.636;2022-07-21T03:49:23;9.25;;;7.22;;
21513;SDS011;10918;48.102;11.636;2022-07-21T03:51:49;7.60;;;6.72;;
21513;SDS011;10918;48.102;11.636;2022-07-21T03:54:15;8.27;;;7.50;;
21513;SDS011;10918;48.102;11.636;2022-07-21T03:56:41;8.75;;;6.65;;
21513;SDS011;10918;48.102;11.636;2022-07-21T03:59:07;8.95;;;8.05;;
21513;SDS011;10918;48.102;11.636;2022-07-21T04:01:33;9.63;;;7.90;;
21513;SDS011;10918;48.102;11.636;2022-07-21T04:04:02;8.70;;;7.90;;
21513;SDS011;10918;48.102;11.636;2022-07-21T04:06:28;8.55;;;7.50;;
21513;SDS011;10918;48.102;11.636;2022-07-21T04:08:54;9.68;;;7.80;;
21513;SDS011;10918;48.102;11.636;2022-07-21T04:11:20;9.15;;;8.18;;
21513;SDS011;10918;48.102;11.636;2022-07-21T04:13:46;9.75;;;8.25;;
21513;SDS011;10918;48.102;11.636;2022-07-21T04:16:15;12.23;;;9.45;;
21513;SDS011;10918;48.102;11.636;2022-07-21T04:18:41;9.43;;;8.63;;
21513;SDS011;10918;48.102;11.636;2022-07-21T04:21:07;9.77;;;8.77;;
21513;SDS011;10918;48.102;11.636;2022-07-21T04:23:33;9.48;;;8.55;;
21513;SDS011;10918;48.102;11.636;2022-07-21T04:25:59;9.80;;;8.90;;
21513;SDS011;10918;48.102;11.636;2022-07-21T04:28:26;9.88;;;8.77;;
21513;SDS011;10918;48.102;11.636;2022-07-21T04:30:52;10.05;;;8.80;;
21513;SDS011;10918;48.102;11.636;2022-07-21T04:33:18;10.00;;;9.00;;
21513;SDS011;10918;48.102;11.636;2022-07-21T04:35:44;10.02;;;9.13;;
21513;SDS011;10918;48.102;11.636;2022-07-21T04:38:10;10.82;;;9.80;;
21513;SDS011;10918;48.102;11.636;2022-07-21T04:40:36;10.07;;;9.18;;
21513;SDS011;10918;48.102;11.636;2022-07-21T04:43:02;10.90;;;9.80;;
21513;SDS011;10918;48.102;11.636;2022-07-21T04:45:28;10.57;;;9.48;;
21513;SDS011;10918;48.102;11.636;2022-07-21T04:47:54;12.10;;;10.68;;
21513;SDS011;10918;48.102;11.636;2022-07-21T04:50:22;11.25;;;9.90;;
21513;SDS011;10918;48.102;11.636;2022-07-21T04:52:48;10.80;;;9.80;;
21513;SDS011;10918;48.102;11.636;2022-07-21T04:55:15;11.85;;;10.25;;
21513;SDS011;10918;48.102;11.636;2022-07-21T04:57:46;11.57;;;10.45;;
21513;SDS011;10918;48.102;11.636;2022-07-21T05:00:14;10.57;;;9.68;;
21513;SDS011;10918;48.102;11.636;2022-07-21T05:02:40;11.82;;;10.52;;
21513;SDS011;10918;48.102;11.636;2022-07-21T05:05:07;11.15;;;10.02;;
21513;SDS011;10918;48.102;11.636;2022-07-21T05:07:33;10.70;;;9.68;;
21513;SDS011;10918;48.102;11.636;2022-07-21T05:09:59;11.68;;;10.57;;
21513;SDS011;10918;48.102;11.636;2022-07-21T05:12:28;12.45;;;11.15;;
21513;SDS011;10918;48.102;11.636;2022-07-21T05:14:54;11.95;;;10.65;;
21513;SDS011;10918;48.102;11.636;2022-07-21T05:17:20;12.55;;;11.35;;
21513;SDS011;10918;48.102;11.636;2022-07-21T05:19:46;11.02;;;9.82;;
21513;SDS011;10918;48.102;11.636;2022-07-21T05:22:15;11.48;;;10.27;;
21513;SDS011;10918;48.102;11.636;2022-07-21T05:24:41;12.07;;;10.93;;
21513;SDS011;10918;48.102;11.636;2022-07-21T05:27:07;12.68;;;11.05;;
21513;SDS011;10918;48.102;11.636;2022-07-21T05:29:33;12.10;;;10.90;;
21513;SDS011;10918;48.102;11.636;2022-07-21T05:31:59;11.20;;;10.10;;
21513;SDS011;10918;48.102;11.636;2022-07-21T05:34:25;14.55;;;11.20;;
21513;SDS011;10918;48.102;11.636;2022-07-21T05:36:51;11.48;;;10.27;;
21513;SDS011;10918;48.102;11.636;2022-07-21T05:39:18;12.48;;;11.27;;
21513;SDS011;10918;48.102;11.636;2022-07-21T05:41:44;12.52;;;11.32;;
21513;SDS011;10918;48.102;11.636;2022-07-21T05:44:10;11.27;;;10.15;;
21513;SDS011;10918;48.102;11.636;2022-07-21T05:46:36;13.88;;;10.98;;
21513;SDS011;10918;48.102;11.636;2022-07-21T05:49:02;11.55;;;10.15;;
21513;SDS011;10918;48.102;11.636;2022-07-21T05:51:28;11.45;;;10.30;;
21513;SDS011;10918;48.102;11.636;2022-07-21T05:53:54;12.10;;;10.95;;
21513;SDS011;10918;48.102;11.636;2022-07-21T05:56:20;12.48;;;10.93;;
21513;SDS011;10918;48.102;11.636;2022-07-21T05:58:46;12.05;;;10.85;;
21513;SDS011;10918;48.102;11.636;2022-07-21T06:01:12;12.95;;;11.10;;
21513;SDS011;10918;48.102;11.636;2022-07-21T06:03:39;11.65;;;10.38;;
21513;SDS011;10918;48.102;11.636;2022-07-21T06:06:06;14.32;;;11.25;;
21513;SDS011;10918;48.102;11.636;2022-07-21T06:08:32;13.00;;;10.30;;
21513;SDS011;10918;48.102;11.636;2022-07-21T06:10:58;12.77;;;11.15;;
21513;SDS011;10918;48.102;11.636;2022-07-21T06:13:24;11.68;;;10.48;;
21513;SDS011;10918;48.102;11.636;2022-07-21T06:15:50;11.70;;;10.60;;
21513;SDS011;10918;48.102;11.636;2022-07-21T06:18:16;11.77;;;10.48;;
21513;SDS011;10918;48.102;11.636;2022-07-21T06:20:42;13.75;;;11.43;;
21513;SDS011;10918;48.102;11.636;2022-07-21T06:23:08;12.00;;;10.80;;
21513;SDS011;10918;48.102;11.636;2022-07-21T06:25:34;13.68;;;11.55;;
21513;SDS011;10918;48.102;11.636;2022-07-21T06:28:00;11.70;;;10.50;;
21513;SDS011;10918;48.102;11.636;2022-07-21T06:30:26;14.75;;;11.85;;
21513;SDS011;10918;48.102;11.636;2022-07-21T06:32:52;11.48;;;10.48;;
21513;SDS011;10918;48.102;11.636;2022-07-21T06:35:18;12.05;;;10.80;;
21513;SDS011;10918;48.102;11.636;2022-07-21T06:37:44;12.38;;;11.18;;
21513;SDS011;10918;48.102;11.636;2022-07-21T06:40:11;12.27;;;11.05;;
21513;SDS011;10918;48.102;11.636;2022-07-21T06:42:37;14.00;;;11.05;;
21513;SDS011;10918;48.102;11.636;2022-07-21T06:45:03;12.07;;;10.90;;
21513;SDS011;10918;48.102;11.636;2022-07-21T06:47:30;13.88;;;11.02;;
21513;SDS011;10918;48.102;11.636;2022-07-21T06:49:56;11.73;;;9.93;;
21513;SDS011;10918;48.102;11.636;2022-07-21T06:52:27;12.65;;;11.35;;
21513;SDS011;10918;48.102;11.636;2022-07-21T06:54:53;11.38;;;10.23;;
21513;SDS011;10918;48.102;11.636;2022-07-21T06:57:19;11.90;;;10.80;;
21513;SDS011;10918;48.102;11.636;2022-07-21T06:59:45;12.27;;;11.10;;
21513;SDS011;10918;48.102;11.636;2022-07-21T07:02:11;13.82;;;12.25;;
21513;SDS011;10918;48.102;11.636;2022-07-21T07:04:37;13.80;;;12.40;;
21513;SDS011;10918;48.102;11.636;2022-07-21T07:07:03;14.55;;;12.27;;
21513;SDS011;10918;48.102;11.636;2022-07-21T07:09:29;16.20;;;12.45;;
21513;SDS011;10918;48.102;11.636;2022-07-21T07:11:55;13.52;;;12.02;;
21513;SDS011;10918;48.102;11.636;2022-07-21T07:14:28;14.13;;;12.63;;
21513;SDS011;10918;48.102;11.636;2022-07-21T07:16:54;13.70;;;12.30;;
21513;SDS011;10918;48.102;11.636;2022-07-21T07:19:20;13.32;;;11.90;;
21513;SDS011;10918;48.102;11.636;2022-07-21T07:21:47;13.35;;;11.68;;
21513;SDS011;10918;48.102;11.636;2022-07-21T07:24:13;13.43;;;12.13;;
21513;SDS011;10918;48.102;11.636;2022-07-21T07:26:39;13.25;;;12.05;;
21513;SDS011;10918;48.102;11.636;2022-07-21T07:29:05;13.38;;;12.02;;
21513;SDS011;10918;48.102;11.636;2022-07-21T07:31:31;13.90;;;11.85;;
21513;SDS011;10918;48.102;11.636;2022-07-21T07:33:57;12.75;;;11.45;;
21513;SDS011;10918;48.102;11.636;2022-07-21T07:36:26;13.35;;;11.93;;
21513;SDS011;10918;48.102;11.636;2022-07-21T07:38:53;14.35;;;11.80;;
21513;SDS011;10918;48.102;11.636;2022-07-21T07:41:19;12.18;;;11.02;;
21513;SDS011;10918;48.102;11.636;2022-07-21T07:43:46;12.32;;;11.07;;
21513;SDS011;10918;48.102;11.636;2022-07-21T07:46:12;13.05;;;10.95;;
21513;SDS011;10918;48.102;11.636;2022-07-21T07:48:39;11.20;;;10.10;;
21513;SDS011;10918;48.102;11.636;2022-07-21T07:51:06;13.88;;;10.57;;
21513;SDS011;10918;48.102;11.636;2022-07-21T07:53:32;12.10;;;10.00;;
21513;SDS011;10918;48.102;11.636;2022-07-21T07:55:58;10.60;;;9.38;;
21513;SDS011;10918;48.102;11.636;2022-07-21T07:58:25;10.85;;;9.73;;
21513;SDS011;10918;48.102;11.636;2022-07-21T08:00:51;11.02;;;9.93;;
21513;SDS011;10918;48.102;11.636;2022-07-21T08:03:17;10.90;;;9.85;;
21513;SDS011;10918;48.102;11.636;2022-07-21T08:05:43;11.07;;;9.95;;
21513;SDS011;10918;48.102;11.636;2022-07-21T08:08:09;10.70;;;9.70;;
21513;SDS011;10918;48.102;11.636;2022-07-21T08:10:35;11.80;;;10.18;;
21513;SDS011;10918;48.102;11.636;2022-07-21T08:13:01;10.98;;;9.88;;
21513;SDS011;10918;48.102;11.636;2022-07-21T08:15:27;11.80;;;10.05;;
21513;SDS011;10918;48.102;11.636;2022-07-21T08:17:53;11.52;;;10.15;;
21513;SDS011;10918;48.102;11.636;2022-07-21T08:20:19;12.10;;;10.70;;
21513;SDS011;10918;48.102;11.636;2022-07-21T08:22:45;10.55;;;9.45;;
21513;SDS011;10918;48.102;11.636;2022-07-21T08:25:11;11.05;;;10.05;;
21513;SDS011;10918;48.102;11.636;2022-07-21T08:27:37;11.80;;;9.65;;
21513;SDS011;10918;48.102;11.636;2022-07-21T08:30:04;13.60;;;10.43;;
21513;SDS011;10918;48.102;11.636;2022-07-21T08:32:31;13.73;;;10.00;;
21513;SDS011;10918;48.102;11.636;2022-07-21T08:34:57;13.02;;;10.63;;
21513;SDS011;10918;48.102;11.636;2022-07-21T08:37:23;10.73;;;9.60;;
21513;SDS011;10918;48.102;11.636;2022-07-21T08:39:49;13.93;;;10.88;;
21513;SDS011;10918;48.102;11.636;2022-07-21T08:42:15;10.90;;;9.80;;
21513;SDS011;10918;48.102;11.636;2022-07-21T08:44:41;11.38;;;10.27;;
21513;SDS011;10918;48.102;11.636;2022-07-21T08:47:07;10.35;;;9.35;;
21513;SDS011;10918;48.102;11.636;2022-07-21T08:49:34;12.77;;;11.68;;
21513;SDS011;10918;48.102;11.636;2022-07-21T08:52:00;13.57;;;11.40;;
21513;SDS011;10918;48.102;11.636;2022-07-21T08:54:27;13.35;;;11.10;;
21513;SDS011;10918;48.102;11.636;2022-07-21T08:56:53;11.93;;;10.82;;
21513;SDS011;10918;48.102;11.636;2022-07-21T08:59:19;11.85;;;10.68;;
21513;SDS011;10918;48.102;11.636;2022-07-21T09:01:47;14.05;;;11.25;;
21513;SDS011;10918;48.102;11.636;2022-07-21T09:06:49;12.38;;;10.75;;
21513;SDS011;10918;48.102;11.636;2022-07-21T09:09:19;11.65;;;10.65;;
21513;SDS011;10918;48.102;11.636;2022-07-21T09:11:48;12.18;;;10.73;;
21513;SDS011;10918;48.102;11.636;2022-07-21T09:14:16;12.27;;;10.68;;
21513;SDS011;10918;48.102;11.636;2022-07-21T09:16:45;11.85;;;10.65;;
21513;SDS011;10918;48.102;11.636;2022-07-21T09:19:15;12.73;;;11.30;;
21513;SDS011;10918;48.102;11.636;2022-07-21T09:21:42;12.20;;;10.82;;
21513;SDS011;10918;48.102;11.636;2022-07-21T09:24:15;11.98;;;10.88;;
21513;SDS011;10918;48.102;11.636;2022-07-21T09:29:26;12.10;;;11.00;;
21513;SDS011;10918;48.102;11.636;2022-07-21T09:31:58;12.45;;;11.23;;
21513;SDS011;10918;48.102;11.636;2022-07-21T09:34:37;12.70;;;11.18;;
21513;SDS011;10918;48.102;11.636;2022-07-21T09:37:04;13.85;;;11.20;;
21513;SDS011;10918;48.102;11.636;2022-07-21T09:39:40;12.07;;;10.73;;
21513;SDS011;10918;48.102;11.636;2022-07-21T09:42:24;11.98;;;10.60;;
21513;SDS011;10918;48.102;11.636;2022-07-21T09:44:53;13.18;;;11.10;;
21513;SDS011;10918;48.102;11.636;2022-07-21T09:47:20;13.05;;;11.73;;
21513;SDS011;10918;48.102;11.636;2022-07-21T09:49:46;13.43;;;12.02;;
21513;SDS011;10918;48.102;11.636;2022-07-21T09:52:22;13.68;;;11.98;;
21513;SDS011;10918;48.102;11.636;2022-07-21T09:54:48;13.20;;;11.88;;
21513;SDS011;10918;48.102;11.636;2022-07-21T09:57:18;13.40;;;12.07;;
21513;SDS011;10918;48.102;11.636;2022-07-21T09:59:44;14.10;;;12.35;;
21513;SDS011;10918;48.102;11.636;2022-07-21T10:02:14;14.50;;;13.07;;
21513;SDS011;10918;48.102;11.636;2022-07-21T10:04:40;14.55;;;13.05;;
21513;SDS011;10918;48.102;11.636;2022-07-21T10:07:07;14.25;;;12.75;;
21513;SDS011;10918;48.102;11.636;2022-07-21T10:09:33;14.25;;;12.77;;
21513;SDS011;10918;48.102;11.636;2022-07-21T10:11:59;13.75;;;12.35;;
21513;SDS011;10918;48.102;11.636;2022-07-21T10:14:25;13.52;;;12.25;;
21513;SDS011;10918;48.102;11.636;2022-07-21T10:16:52;15.13;;;13.63;;
21513;SDS011;10918;48.102;11.636;2022-07-21T10:24:15;13.43;;;12.02;;
21513;SDS011;10918;48.102;11.636;2022-07-21T10:32:11;12.95;;;11.65;;
21513;SDS011;10918;48.102;11.636;2022-07-21T10:34:38;15.40;;;11.98;;
21513;SDS011;10918;48.102;11.636;2022-07-21T10:37:04;12.68;;;11.48;;
21513;SDS011;10918;48.102;11.636;2022-07-21T10:39:30;14.05;;;12.75;;
21513;SDS011;10918;48.102;11.636;2022-07-21T10:41:58;12.73;;;11.60;;
21513;SDS011;10918;48.102;11.636;2022-07-21T10:49:41;12.35;;;11.10;;
21513;SDS011;10918;48.102;11.636;2022-07-21T11:00:39;14.13;;;12.73;;
21513;SDS011;10918;48.102;11.636;2022-07-21T11:03:41;15.93;;;13.45;;
21513;SDS011;10918;48.102;11.636;2022-07-21T11:08:32;16.15;;;14.55;;
21513;SDS011;10918;48.102;11.636;2022-07-21T11:11:12;19.02;;;16.15;;
21513;SDS011;10918;48.102;11.636;2022-07-21T11:19:32;15.05;;;12.73;;
21513;SDS011;10918;48.102;11.636;2022-07-21T11:22:15;14.20;;;12.80;;
21513;SDS011;10918;48.102;11.636;2022-07-21T11:24:49;13.50;;;12.25;;
21513;SDS011;10918;48.102;11.636;2022-07-21T11:27:16;12.98;;;11.60;;
21513;SDS011;10918;48.102;11.636;2022-07-21T11:29:43;13.18;;;11.80;;
21513;SDS011;10918;48.102;11.636;2022-07-21T11:32:10;12.55;;;11.32;;
21513;SDS011;10918;48.102;11.636;2022-07-21T11:34:40;12.70;;;11.52;;
21513;SDS011;10918;48.102;11.636;2022-07-21T11:37:06;13.02;;;11.73;;
21513;SDS011;10918;48.102;11.636;2022-07-21T11:39:32;13.27;;;11.95;;
21513;SDS011;10918;48.102;11.636;2022-07-21T11:42:06;13.38;;;12.10;;
21513;SDS011;10918;48.102;11.636;2022-07-21T11:44:33;13.52;;;12.23;;
21513;SDS011;10918;48.102;11.636;2022-07-21T11:47:00;12.50;;;11.27;;
21513;SDS011;10918;48.102;11.636;2022-07-21T11:49:26;11.80;;;10.70;;
21513;SDS011;10918;48.102;11.636;2022-07-21T11:52:35;13.02;;;11.75;;
21513;SDS011;10918;48.102;11.636;2022-07-21T11:57:12;14.02;;;12.55;;
21513;SDS011;10918;48.102;11.636;2022-07-21T11:59:38;15.57;;;13.65;;
21513;SDS011;10918;48.102;11.636;2022-07-21T12:02:18;13.80;;;12.40;;
21513;SDS011;10918;48.102;11.636;2022-07-21T12:07:15;14.13;;;12.73;;
21513;SDS011;10918;48.102;11.636;2022-07-21T12:09:43;15.35;;;13.75;;
21513;SDS011;10918;48.102;11.636;2022-07-21T12:12:09;14.23;;;12.77;;
21513;SDS011;10918;48.102;11.636;2022-07-21T12:14:45;15.45;;;12.77;;
21513;SDS011;10918;48.102;11.636;2022-07-21T12:17:12;14.15;;;12.68;;
21513;SDS011;10918;48.102;11.636;2022-07-21T12:19:38;14.55;;;12.02;;
21513;SDS011;10918;48.102;11.636;2022-07-21T12:22:05;14.38;;;12.98;;
21513;SDS011;10918;48.102;11.636;2022-07-21T12:27:16;14.98;;;12.77;;
21513;SDS011;10918;48.102;11.636;2022-07-21T12:29:43;14.35;;;13.00;;
21513;SDS011;10918;48.102;11.636;2022-07-21T12:32:09;16.17;;;12.52;;
21513;SDS011;10918;48.102;11.636;2022-07-21T12:34:48;15.48;;;13.85;;
21513;SDS011;10918;48.102;11.636;2022-07-21T12:37:14;13.00;;;11.80;;
21513;SDS011;10918;48.102;11.636;2022-07-21T12:39:41;13.48;;;12.13;;
21513;SDS011;10918;48.102;11.636;2022-07-21T12:42:29;13.90;;;12.50;;
21513;SDS011;10918;48.102;11.636;2022-07-21T12:44:55;14.27;;;12.07;;
21513;SDS011;10918;48.102;11.636;2022-07-21T12:47:22;12.93;;;11.65;;
21513;SDS011;10918;48.102;11.636;2022-07-21T12:49:53;13.35;;;12.15;;
21513;SDS011;10918;48.102;11.636;2022-07-21T12:52:20;14.45;;;13.13;;
21513;SDS011;10918;48.102;11.636;2022-07-21T12:54:46;14.60;;;13.10;;
21513;SDS011;10918;48.102;11.636;2022-07-21T12:57:12;12.68;;;11.48;;
21513;SDS011;10918;48.102;11.636;2022-07-21T12:59:38;13.77;;;11.90;;
21513;SDS011;10918;48.102;11.636;2022-07-21T13:02:04;15.45;;;12.68;;
21513;SDS011;10918;48.102;11.636;2022-07-21T13:04:30;15.75;;;12.68;;
21513;SDS011;10918;48.102;11.636;2022-07-21T13:06:56;15.75;;;14.07;;
21513;SDS011;10918;48.102;11.636;2022-07-21T13:09:22;13.27;;;11.93;;
21513;SDS011;10918;48.102;11.636;2022-07-21T13:11:48;14.38;;;12.80;;
21513;SDS011;10918;48.102;11.636;2022-07-21T13:14:14;15.82;;;14.23;;
21513;SDS011;10918;48.102;11.636;2022-07-21T13:16:40;14.70;;;13.35;;
21513;SDS011;10918;48.102;11.636;2022-07-21T13:19:06;15.15;;;13.35;;
21513;SDS011;10918;48.102;11.636;2022-07-21T13:21:32;14.30;;;12.38;;
21513;SDS011;10918;48.102;11.636;2022-07-21T13:23:58;14.95;;;13.15;;
21513;SDS011;10918;48.102;11.636;2022-07-21T13:26:24;14.50;;;13.02;;
21513;SDS011;10918;48.102;11.636;2022-07-21T13:28:50;14.85;;;13.05;;
21513;SDS011;10918;48.102;11.636;2022-07-21T13:31:16;13.90;;;11.57;;
21513;SDS011;10918;48.102;11.636;2022-07-21T13:33:44;13.40;;;12.10;;
21513;SDS011;10918;48.102;11.636;2022-07-21T13:36:10;14.52;;;12.68;;
21513;SDS011;10918;48.102;11.636;2022-07-21T13:38:36;14.02;;;12.60;;
21513;SDS011;10918;48.102;11.636;2022-07-21T13:41:02;14.07;;;12.68;;
21513;SDS011;10918;48.102;11.636;2022-07-21T13:43:28;15.57;;;12.93;;
21513;SDS011;10918;48.102;11.636;2022-07-21T13:45:54;14.02;;;12.68;;
21513;SDS011;10918;48.102;11.636;2022-07-21T13:48:20;14.48;;;13.07;;
21513;SDS011;10918;48.102;11.636;2022-07-21T13:50:47;14.48;;;13.18;;
21513;SDS011;10918;48.102;11.636;2022-07-21T13:53:13;14.13;;;12.65;;
21513;SDS011;10918;48.102;11.636;2022-07-21T13:55:39;14.55;;;13.02;;
21513;SDS011;10918;48.102;11.636;2022-07-21T13:58:05;19.02;;;13.77;;
21513;SDS011;10918;48.102;11.636;2022-07-21T14:00:33;16.40;;;13.43;;
21513;SDS011;10918;48.102;11.636;2022-07-21T14:02:59;14.02;;;12.63;;
21513;SDS011;10918;48.102;11.636;2022-07-21T14:05:25;15.15;;;13.40;;
21513;SDS011;10918;48.102;11.636;2022-07-21T14:07:51;17.10;;;13.68;;
21513;SDS011;10918;48.102;11.636;2022-07-21T14:10:17;15.88;;;13.68;;
21513;SDS011;10918;48.102;11.636;2022-07-21T14:12:43;17.17;;;15.52;;
21513;SDS011;10918;48.102;11.636;2022-07-21T14:15:09;17.38;;;15.63;;
21513;SDS011;10918;48.102;11.636;2022-07-21T14:17:36;16.48;;;13.25;;
21513;SDS011;10918;48.102;11.636;2022-07-21T14:20:02;14.55;;;13.15;;
21513;SDS011;10918;48.102;11.636;2022-07-21T14:22:28;14.18;;;12.77;;
21513;SDS011;10918;48.102;11.636;2022-07-21T14:24:54;12.73;;;11.23;;
21513;SDS011;10918;48.102;11.636;2022-07-21T14:27:39;14.93;;;12.18;;
21513;SDS011;10918;48.102;11.636;2022-07-21T14:30:05;14.23;;;12.10;;
21513;SDS011;10918;48.102;11.636;2022-07-21T14:32:31;10.38;;;9.40;;
21513;SDS011;10918;48.102;11.636;2022-07-21T14:34:57;11.18;;;10.15;;
21513;SDS011;10918;48.102;11.636;2022-07-21T14:37:24;17.15;;;15.45;;
21513;SDS011;10918;48.102;11.636;2022-07-21T14:39:50;11.68;;;10.57;;
21513;SDS011;10918;48.102;11.636;2022-07-21T14:42:16;12.43;;;11.13;;
21513;SDS011;10918;48.102;11.636;2022-07-21T14:44:43;11.00;;;9.90;;
21513;SDS011;10918;48.102;11.636;2022-07-21T14:47:09;12.15;;;10.52;;
21513;SDS011;10918;48.102;11.636;2022-07-21T14:49:35;11.27;;;10.25;;
21513;SDS011;10918;48.102;11.636;2022-07-21T14:52:02;11.45;;;10.27;;
21513;SDS011;10918;48.102;11.636;2022-07-21T14:54:28;12.18;;;10.98;;
21513;SDS011;10918;48.102;11.636;2022-07-21T14:56:54;10.82;;;9.82;;
21513;SDS011;10918;48.102;11.636;2022-07-21T14:59:20;13.30;;;10.05;;
21513;SDS011;10918;48.102;11.636;2022-07-21T15:01:46;10.88;;;9.80;;
21513;SDS011;10918;48.102;11.636;2022-07-21T15:04:12;11.95;;;10.85;;
21513;SDS011;10918;48.102;11.636;2022-07-21T15:06:39;10.68;;;9.35;;